Time;durP1;ratioP1;P1;durP2;ratioP2;P2;SDS_P1;SDS_P2;PMS_P1;PMS_P2;Temp;Humidity;BMP_temperature;BMP_pressure;BME280_temperature;BME280_humidity;BME280_pressure;Samples;Min_cycle;Max_cycle;Signal;HPM_P1;HPM_P2
2024/01/18 00:01:15;;;;;;;;;;;;;;;10.51;46.03;96116.15;67975;1275;1018116;-61
2024/01/18 00:04:19;;;;;;;24.80;7.70;;;;;;;10.49;46.12;96107.17;67978;1275;1016365;-61
2024/01/18 00:07:22;;;;;;;24.20;7.90;;;;;;;10.49;45.91;96095.58;67997;1275;1016437;-61
2024/01/18 00:10:28;;;;;;;24.00;7.20;;;;;;;10.57;45.75;96094.59;67918;1275;1016470;-61
2024/01/18 00:13:30;;;;;;;24.40;7.30;;;;;;;10.57;45.89;96089.52;67947;1275;1015997;-61
2024/01/18 00:16:34;;;;;;;24.30;7.40;;;;;;;10.61;45.53;96082.54;67920;1275;1016496;-61
2024/01/18 00:19:37;;;;;;;25.10;7.90;;;;;;;10.49;45.92;96080.02;67934;1275;1018885;-61
2024/01/18 00:22:40;;;;;;;24.30;7.50;;;;;;;10.52;45.70;96071.52;67977;1275;1016035;-61
2024/01/18 00:25:43;;;;;;;23.10;7.00;;;;;;;10.57;45.78;96064.38;68024;1275;1016463;-61
2024/01/18 00:28:45;;;;;;;;;;;;;;;10.40;46.09;96068.16;67950;1275;1016092;-61
2024/01/18 00:31:48;;;;;;;23.50;7.00;;;;;;;10.23;46.41;96072.78;67997;1275;1016302;-61
2024/01/18 00:34:51;;;;;;;;;;;;;;;10.18;46.78;96077.25;67989;1275;1016992;-61
2024/01/18 00:37:53;;;;;;;23.90;7.00;;;;;;;10.28;46.76;96078.20;67938;1275;1016531;-62
2024/01/18 00:40:56;;;;;;;25.40;7.80;;;;;;;10.33;46.90;96083.94;67964;1275;1016436;-61
2024/01/18 00:43:59;;;;;;;;;;;;;;;10.44;46.62;96080.17;67965;1275;1016465;-61
2024/01/18 00:47:02;;;;;;;26.50;7.70;;;;;;;10.48;46.55;96092.36;67906;1275;1016595;-61
2024/01/18 00:50:06;;;;;;;27.80;8.60;;;;;;;10.50;46.25;96081.20;67942;1275;1018823;-61
2024/01/18 00:53:08;;;;;;;25.20;7.70;;;;;;;10.44;46.69;96085.87;67973;1275;1016494;-61
2024/01/18 00:56:11;;;;;;;22.50;7.10;;;;;;;10.51;46.72;96086.08;67957;1275;1016445;-61
2024/01/18 00:59:14;;;;;;;;;;;;;;;10.64;46.60;96081.95;67942;1275;1019088;-61
2024/01/18 01:02:16;;;;;;;25.10;7.60;;;;;;;10.73;46.52;96084.49;67985;1275;1016598;-61
2024/01/18 01:05:19;;;;;;;;;;;;;;;10.86;46.47;96089.15;67962;1275;1016110;-61
2024/01/18 01:08:22;;;;;;;24.70;7.90;;;;;;;10.95;46.07;96095.73;67960;1275;1016608;-61
2024/01/18 01:11:24;;;;;;;25.80;7.50;;;;;;;10.73;46.53;96090.62;68009;1275;1016200;-61
2024/01/18 01:14:27;;;;;;;;;;;;;;;10.80;46.66;96089.58;67989;1275;1016229;-62
2024/01/18 01:17:30;;;;;;;22.80;7.10;;;;;;;11.06;46.10;96087.02;67945;1275;1016351;-61
2024/01/18 01:20:32;;;;;;;;;;;;;;;11.05;46.06;96089.73;68029;1275;1016469;-61
2024/01/18 01:23:41;;;;;;;25.90;7.70;;;;;;;11.05;46.15;96092.84;67962;1275;1016321;-60
2024/01/18 01:26:44;;;;;;;29.80;8.30;;;;;;;10.91;46.37;96093.98;67956;1275;1016466;-61
2024/01/18 01:29:49;;;;;;;27.70;8.40;;;;;;;10.85;46.74;96091.16;67960;1274;1016134;-61
2024/01/18 01:32:52;;;;;;;26.40;8.30;;;;;;;10.84;47.08;96092.83;67967;1275;1018838;-61
2024/01/18 01:35:56;;;;;;;24.00;7.90;;;;;;;10.93;46.79;96092.12;68013;1275;1016721;-61
2024/01/18 01:38:59;;;;;;;24.50;8.00;;;;;;;10.90;46.97;96097.78;67998;1275;1018552;-61
2024/01/18 01:42:02;;;;;;;23.90;7.80;;;;;;;10.93;46.77;96105.13;68019;1275;1016411;-61
2024/01/18 01:45:06;;;;;;;28.20;8.90;;;;;;;10.86;46.87;96110.92;68027;1275;1017024;-61
2024/01/18 01:48:08;;;;;;;26.00;7.90;;;;;;;10.84;47.11;96109.05;67966;1275;1016201;-61
2024/01/18 01:51:11;;;;;;;28.10;8.40;;;;;;;10.81;47.35;96107.61;68011;1275;1017064;-61
2024/01/18 01:54:14;;;;;;;;;;;;;;;10.82;47.57;96109.14;67965;1275;1016477;-62
2024/01/18 01:57:16;;;;;;;30.90;9.40;;;;;;;11.03;47.32;96099.52;67952;1275;1016240;-61
2024/01/18 02:00:21;;;;;;;;;;;;;;;11.37;47.11;96101.20;67987;1275;1016909;-61
2024/01/18 02:03:24;;;;;;;46.50;15.30;;;;;;;11.45;46.73;96100.84;67980;1275;1015913;-61
2024/01/18 02:06:26;;;;;;;32.00;10.90;;;;;;;11.33;47.11;96096.39;67940;1275;1016438;-61
2024/01/18 02:09:29;;;;;;;;;;;;;;;11.33;47.04;96096.58;67977;1275;1016290;-61
2024/01/18 02:12:32;;;;;;;25.20;8.10;;;;;;;11.24;47.20;96090.20;67953;1275;1016506;-61
2024/01/18 02:15:34;;;;;;;25.10;7.70;;;;;;;11.42;46.99;96093.00;67952;1275;1015932;-61
2024/01/18 02:18:37;;;;;;;;;;;;;;;11.54;46.90;96084.83;67982;1275;1016318;-62
2024/01/18 02:21:40;;;;;;;25.80;8.20;;;;;;;11.49;46.93;96084.89;67927;1275;1016325;-61
2024/01/18 02:24:42;;;;;;;;;;;;;;;11.50;46.89;96090.92;67953;1275;1016451;-61
2024/01/18 02:27:45;;;;;;;24.60;8.00;;;;;;;11.51;46.73;96093.05;68001;1275;1016290;-61
2024/01/18 02:30:48;;;;;;;26.20;8.10;;;;;;;11.52;47.06;96095.91;68003;1275;1017145;-61
2024/01/18 02:33:50;;;;;;;;;;;;;;;11.46;47.11;96097.14;67968;1275;1019593;-61
2024/01/18 02:36:53;;;;;;;28.90;8.70;;;;;;;11.49;47.25;96094.17;68012;1275;1016313;-61
2024/01/18 02:39:56;;;;;;;;;;;;;;;11.58;47.28;96089.90;68002;1275;1016271;-60
2024/01/18 02:42:59;;;;;;;26.30;9.50;;;;;;;11.57;47.23;96090.69;67972;1275;1018536;-61
2024/01/18 02:46:01;;;;;;;;;;;;;;;11.63;47.23;96086.71;68033;1275;1017078;-61
2024/01/18 02:49:04;;;;;;;26.60;8.90;;;;;;;11.47;47.67;96088.38;67995;1275;1015998;-61
2024/01/18 02:52:07;;;;;;;24.60;8.50;;;;;;;11.54;47.20;96091.90;67949;1275;1016216;-61
2024/01/18 02:55:09;;;;;;;23.40;7.80;;;;;;;11.45;47.44;96091.96;68040;1275;1016445;-61
2024/01/18 02:58:12;;;;;;;;;;;;;;;11.40;47.40;96085.49;68005;1275;1016492;-61
2024/01/18 03:01:15;;;;;;;26.70;8.40;;;;;;;11.57;47.12;96077.73;67977;1275;1016451;-61
2024/01/18 03:04:17;;;;;;;24.80;8.20;;;;;;;11.55;47.32;96080.52;68010;1275;1017546;-60
2024/01/18 03:07:20;;;;;;;;;;;;;;;11.59;47.33;96084.19;67952;1275;1016773;-61
2024/01/18 03:10:23;;;;;;;26.80;9.00;;;;;;;11.50;47.46;96082.00;67955;1275;1016296;-60
2024/01/18 03:13:26;;;;;;;;;;;;;;;11.40;47.81;96078.44;68005;1275;1016405;-61
2024/01/18 03:16:29;;;;;;;27.10;8.80;;;;;;;11.44;47.96;96080.67;68009;1275;1018834;-61
2024/01/18 03:19:32;;;;;;;26.10;8.50;;;;;;;11.52;48.08;96077.73;68031;1275;1016446;-61
2024/01/18 03:22:34;;;;;;;25.60;8.70;;;;;;;11.63;47.76;96079.17;67960;1275;1019112;-60
2024/01/18 03:25:37;;;;;;;25.70;8.90;;;;;;;11.63;47.84;96079.52;67953;1275;1017932;-61
2024/01/18 03:28:40;;;;;;;;;;;;;;;11.62;47.92;96082.60;68016;1275;1016425;-61
2024/01/18 03:31:43;;;;;;;27.80;8.50;;;;;;;11.51;48.26;96085.19;67982;1275;1018307;-61
2024/01/18 03:34:46;;;;;;;31.30;10.30;;;;;;;11.54;48.08;96084.73;67989;1275;1016403;-61
2024/01/18 03:37:48;;;;;;;28.80;9.50;;;;;;;11.50;48.03;96089.48;68023;1275;1016246;-61
2024/01/18 03:40:51;;;;;;;;;;;;;;;11.52;48.21;96092.92;67957;1275;1016619;-61
2024/01/18 03:43:54;;;;;;;26.60;8.90;;;;;;;11.68;47.65;96089.42;68027;1275;1016734;-61
2024/01/18 03:46:56;;;;;;;;;;;;;;;11.58;48.00;96094.19;67982;1275;1016725;-61
2024/01/18 03:49:59;;;;;;;29.20;9.90;;;;;;;11.41;48.27;96092.87;67984;1274;1016811;-61
2024/01/18 03:53:02;;;;;;;;;;;;;;;11.19;48.73;96097.17;67997;1275;1017643;-61
2024/01/18 03:56:05;;;;;;;29.40;9.30;;;;;;;11.17;49.11;96100.86;67913;1275;1018374;-60
2024/01/18 03:59:08;;;;;;;24.30;8.30;;;;;;;11.25;49.11;96104.19;68001;1275;1016893;-61
2024/01/18 04:02:11;;;;;;;25.10;8.40;;;;;;;11.26;48.95;96110.56;67952;1275;1016415;-61
2024/01/18 04:05:13;;;;;;;;;;;;;;;11.25;49.00;96109.34;67994;1275;1016421;-62
2024/01/18 04:08:16;;;;;;;25.00;9.00;;;;;;;11.37;48.78;96106.33;68015;1275;1016473;-61
2024/01/18 04:11:19;;;;;;;29.00;10.20;;;;;;;11.40;48.71;96111.90;68033;1275;1017017;-61
2024/01/18 04:14:21;;;;;;;;;;;;;;;11.53;48.87;96105.95;67946;1275;1016421;-61
2024/01/18 04:17:24;;;;;;;30.00;10.50;;;;;;;11.58;48.49;96109.13;68021;1275;1016598;-60
2024/01/18 04:20:29;;;;;;;;;;;;;;;11.50;48.56;96108.52;67973;1275;1016208;-60
2024/01/18 04:23:31;;;;;;;28.30;10.30;;;;;;;11.45;48.47;96110.85;67965;1275;1016349;-61
2024/01/18 04:26:34;;;;;;;29.70;10.90;;;;;;;11.42;48.78;96111.66;68025;1275;1016368;-61
2024/01/18 04:29:37;;;;;;;;;;;;;;;11.37;48.77;96117.41;68023;1275;1015734;-61
2024/01/18 04:32:40;;;;;;;26.70;9.90;;;;;;;11.31;48.91;96122.63;67964;1275;1016411;-61
2024/01/18 04:35:42;;;;;;;25.60;9.30;;;;;;;11.32;48.91;96129.68;68009;1275;1018684;-61
2024/01/18 04:38:45;;;;;;;28.10;10.70;;;;;;;11.24;48.86;96133.35;68012;1275;1016414;-61
2024/01/18 04:41:48;;;;;;;28.90;10.40;;;;;;;11.07;48.90;96137.94;67993;1275;1017201;-61
2024/01/18 04:44:50;;;;;;;29.50;11.40;;;;;;;11.01;49.28;96135.50;67995;1275;1016389;-61
2024/01/18 04:47:54;;;;;;;;;;;;;;;11.17;49.21;96140.04;67994;1275;1018233;-60
2024/01/18 04:50:57;;;;;;;48.30;22.20;;;;;;;11.28;49.16;96147.85;68000;1275;1016292;-61
2024/01/18 04:54:00;;;;;;;50.90;24.10;;;;;;;11.26;48.99;96154.81;67948;1275;1016461;-61
2024/01/18 04:57:03;;;;;;;47.90;22.90;;;;;;;11.27;49.04;96156.88;68012;1275;1016459;-61
2024/01/18 05:00:10;;;;;;;43.80;19.10;;;;;;;11.31;48.97;96156.08;67971;1275;1016445;-60
2024/01/18 05:03:12;;;;;;;31.00;12.60;;;;;;;11.29;49.13;96155.80;68040;1275;1016418;-61
2024/01/18 05:06:15;;;;;;;31.70;12.90;;;;;;;11.28;48.96;96156.02;68002;1275;1016281;-61
2024/01/18 05:09:18;;;;;;;;;;;;;;;11.33;48.73;96156.88;67980;1275;1016449;-61
2024/01/18 05:12:21;;;;;;;33.00;12.90;;;;;;;11.30;48.82;96149.65;67989;1275;1016389;-61
2024/01/18 05:15:25;;;;;;;36.80;13.70;;;;;;;11.42;49.13;96150.35;67965;1275;1016458;-61
2024/01/18 05:18:27;;;;;;;51.90;18.20;;;;;;;11.52;49.15;96150.88;67983;1275;1016341;-61
2024/01/18 05:21:30;;;;;;;64.90;21.70;;;;;;;11.56;49.02;96153.13;68000;1275;1016456;-61
2024/01/18 05:24:33;;;;;;;;;;;;;;;11.61;48.94;96160.05;68022;1275;1016440;-61
2024/01/18 05:27:36;;;;;;;31.80;10.70;;;;;;;11.76;48.52;96165.33;67978;1275;1016471;-61
2024/01/18 05:30:39;;;;;;;39.90;13.90;;;;;;;11.84;48.31;96174.60;67998;1275;1016356;-60
2024/01/18 05:33:41;;;;;;;69.00;22.60;;;;;;;11.90;48.16;96169.61;68008;1275;1016491;-61
2024/01/18 05:36:45;;;;;;;;;;;;;;;11.85;48.02;96172.89;67948;1275;1016416;-60
2024/01/18 05:39:48;;;;;;;97.20;32.00;;;;;;;11.80;48.51;96184.49;67960;1275;1016460;-61
2024/01/18 05:42:51;;;;;;;77.10;26.30;;;;;;;11.79;48.53;96186.70;67992;1275;1016718;-61
2024/01/18 05:45:54;;;;;;;;;;;;;;;11.72;48.57;96190.05;68020;1275;1019562;-60
2024/01/18 05:48:57;;;;;;;64.80;20.00;;;;;;;11.61;48.96;96189.42;67988;1275;1016039;-61
2024/01/18 05:52:00;;;;;;;62.80;19.70;;;;;;;11.73;48.92;96189.78;68028;1275;1016129;-61
2024/01/18 05:55:03;;;;;;;;;;;;;;;11.76;48.71;96192.77;67941;1275;1016470;-61
2024/01/18 05:58:06;;;;;;;52.70;16.00;;;;;;;11.73;48.49;96196.05;67960;1275;1016885;-61
2024/01/18 06:01:09;;;;;;;;;;;;;;;11.75;48.78;96201.98;67963;1275;1016507;-61
2024/01/18 06:04:11;;;;;;;43.70;21.20;;;;;;;11.71;49.02;96210.63;68005;1275;1016531;-61
2024/01/18 06:07:14;;;;;;;58.30;19.80;;;;;;;11.30;48.92;96215.45;67947;1275;1016004;-60
2024/01/18 06:10:17;;;;;;;62.50;18.70;;;;;;;11.00;49.26;96218.84;67966;1275;1018448;-61
2024/01/18 06:13:20;;;;;;;87.30;25.00;;;;;;;10.92;49.67;96218.56;68003;1275;1016013;-61
2024/01/18 06:16:22;;;;;;;64.20;21.50;;;;;;;11.04;50.11;96221.11;67952;1275;1016456;-60
2024/01/18 06:19:25;;;;;;;56.70;23.40;;;;;;;11.13;50.00;96227.20;67969;1275;1016473;-61
2024/01/18 06:22:28;;;;;;;;;;;;;;;11.14;50.00;96232.41;67803;1275;1016410;-60
2024/01/18 06:25:31;;;;;;;76.50;36.50;;;;;;;11.15;50.16;96238.42;67978;1275;1016469;-61
2024/01/18 06:28:34;;;;;;;73.90;32.20;;;;;;;11.14;50.23;96237.10;68000;1275;1016458;-61
2024/01/18 06:31:36;;;;;;;;;;;;;;;11.20;49.96;96236.80;67980;1275;1016438;-61
2024/01/18 06:34:39;;;;;;;83.30;36.80;;;;;;;11.28;49.84;96235.65;67959;1275;1016417;-61
2024/01/18 06:37:42;;;;;;;52.40;21.80;;;;;;;11.34;49.98;96240.29;67999;1275;1016444;-61
2024/01/18 06:40:45;;;;;;;26.90;9.00;;;;;;;11.25;49.70;96243.00;67989;1275;1018326;-61
2024/01/18 06:43:48;;;;;;;;;;;;;;;11.13;50.06;96245.06;68033;1275;1016071;-60
2024/01/18 06:46:51;;;;;;;32.80;12.50;;;;;;;11.11;50.17;96242.31;68006;1275;1016290;-61
2024/01/18 06:49:54;;;;;;;50.00;18.10;;;;;;;11.21;50.21;96237.41;68001;1275;1017174;-61
2024/01/18 06:52:57;;;;;;;;;;;;;;;11.31;50.39;96238.79;68019;1275;1018613;-61
2024/01/18 06:56:01;;;;;;;51.60;25.40;;;;;;;11.44;50.08;96239.92;67972;1275;1016778;-61
2024/01/18 06:59:05;;;;;;;42.40;20.20;;;;;;;11.48;50.18;96243.66;67958;1275;1016342;-61
2024/01/18 07:02:08;;;;;;;41.80;17.90;;;;;;;11.65;50.14;96244.52;68001;1275;1016757;-61
2024/01/18 07:05:10;;;;;;;47.00;19.50;;;;;;;11.68;49.87;96249.29;68011;1275;1016791;-61
2024/01/18 07:08:13;;;;;;;;;;;;;;;11.72;49.82;96248.83;67973;1275;1017870;-61
2024/01/18 07:11:16;;;;;;;52.00;20.20;;;;;;;11.78;49.78;96251.00;67992;1275;1016340;-61
2024/01/18 07:14:18;;;;;;;;;;;;;;;11.72;49.66;96255.10;68002;1275;1015997;-62
2024/01/18 07:17:21;;;;;;;67.80;24.00;;;;;;;11.74;49.69;96261.96;67928;1275;1019308;-61
2024/01/18 07:20:24;;;;;;;;;;;;;;;11.69;49.79;96268.77;67973;1275;1016378;-61
2024/01/18 07:23:26;;;;;;;63.20;21.90;;;;;;;11.74;49.67;96274.89;68006;1275;1018704;-61
2024/01/18 07:26:29;;;;;;;70.10;25.70;;;;;;;11.69;49.55;96276.10;67927;1275;1016422;-61
2024/01/18 07:29:32;;;;;;;68.10;26.90;;;;;;;11.74;49.81;96275.65;67978;1275;1015862;-62
2024/01/18 07:32:34;;;;;;;;;;;;;;;11.69;49.70;96279.48;67976;1275;1016227;-61
2024/01/18 07:35:37;;;;;;;75.00;33.10;;;;;;;11.72;49.88;96286.34;67950;1275;1016759;-61
2024/01/18 07:38:40;;;;;;;61.10;26.60;;;;;;;11.75;51.25;96292.83;67998;1275;1016431;-60
2024/01/18 07:41:43;;;;;;;;;;;;;;;11.93;50.48;96295.86;68000;1275;1016515;-61
2024/01/18 07:44:46;;;;;;;44.30;16.40;;;;;;;11.95;51.19;96309.11;67974;1275;1016048;-61
2024/01/18 07:47:48;;;;;;;32.80;14.40;;;;;;;11.67;54.23;96320.60;68007;1275;1016395;-61
2024/01/18 07:50:51;;;;;;;32.30;13.50;;;;;;;11.45;55.16;96321.38;67932;1275;1016814;-62
2024/01/18 07:53:54;;;;;;;33.70;13.50;;;;;;;11.58;53.42;96326.85;67968;1275;1016239;-61
2024/01/18 07:56:56;;;;;;;;;;;;;;;11.75;53.48;96328.56;67997;1275;1018492;-61
2024/01/18 07:59:59;;;;;;;31.40;13.10;;;;;;;11.89;52.65;96325.66;67908;1275;1016319;-61
2024/01/18 08:03:02;;;;;;;;;;;;;;;11.92;52.52;96329.55;68006;1275;1016577;-61
2024/01/18 08:06:06;;;;;;;;;;;;;;;11.95;52.74;96327.19;67981;1275;1016389;-61
2024/01/18 08:09:11;;;;;;;32.10;13.80;;;;;;;12.08;52.38;96333.80;67983;1275;1016317;-61
2024/01/18 08:12:14;;;;;;;32.30;13.40;;;;;;;12.20;52.49;96331.41;67981;1275;1016224;-61
2024/01/18 08:15:16;;;;;;;31.90;13.70;;;;;;;12.19;52.32;96334.83;67985;1275;1018320;-60
2024/01/18 08:18:19;;;;;;;;;;;;;;;12.33;52.16;96326.11;67956;1275;1016505;-61
2024/01/18 08:21:22;;;;;;;31.70;13.00;;;;;;;12.44;51.96;96323.91;67980;1275;1016452;-62
2024/01/18 08:24:25;;;;;;;33.40;14.00;;;;;;;12.57;51.61;96328.61;67991;1275;1016429;-61
2024/01/18 08:27:27;;;;;;;34.40;14.70;;;;;;;12.58;51.42;96337.26;67938;1275;1016418;-60
2024/01/18 08:30:30;;;;;;;;;;;;;;;12.47;51.70;96340.03;67984;1275;1018263;-61
2024/01/18 08:33:33;;;;;;;31.40;13.70;;;;;;;12.59;51.81;96340.64;67966;1275;1016242;-61
2024/01/18 08:36:36;;;;;;;;;;;;;;;12.63;51.49;96344.32;67929;1275;1016315;-61
2024/01/18 08:39:39;;;;;;;31.20;13.70;;;;;;;12.73;51.44;96352.48;67983;1275;1019536;-61
2024/01/18 08:42:44;;;;;;;32.70;14.50;;;;;;;12.84;50.92;96354.12;67902;1275;1016510;-61
2024/01/18 08:45:46;;;;;;;32.90;14.30;;;;;;;12.75;50.99;96356.80;67977;1275;1016472;-61
2024/01/18 08:48:49;;;;;;;32.20;14.10;;;;;;;12.47;51.19;96365.56;67945;1275;1016407;-61
2024/01/18 08:51:52;;;;;;;;;;;;;;;12.30;51.99;96375.08;67948;1275;1016066;-61
2024/01/18 08:54:54;;;;;;;27.70;11.20;;;;;;;12.18;52.27;96382.75;68014;1275;1016488;-61
2024/01/18 08:57:57;;;;;;;25.50;10.30;;;;;;;11.97;52.94;96391.25;67961;1275;1018333;-61
2024/01/18 09:01:00;;;;;;;26.40;11.10;;;;;;;11.85;52.94;96390.33;67949;1275;1016493;-61
2024/01/18 09:04:03;;;;;;;27.50;11.90;;;;;;;11.86;52.97;96391.67;67979;1275;1016506;-60
2024/01/18 09:07:06;;;;;;;;;;;;;;;11.83;52.78;96394.42;67953;1275;1016326;-61
2024/01/18 09:10:08;;;;;;;26.30;11.20;;;;;;;11.81;53.25;96401.45;67977;1275;1016429;-61
2024/01/18 09:13:11;;;;;;;28.70;11.30;;;;;;;11.75;53.15;96412.27;67936;1275;1016351;-62
2024/01/18 09:16:14;;;;;;;;;;;;;;;11.65;53.36;96417.66;67928;1275;1018004;-61
2024/01/18 09:19:17;;;;;;;26.90;10.90;;;;;;;11.44;54.13;96417.48;67986;1275;1016937;-61
2024/01/18 09:22:20;;;;;;;27.00;11.10;;;;;;;11.47;54.04;96419.65;67941;1275;1016299;-60
2024/01/18 09:25:23;;;;;;;29.20;11.20;;;;;;;11.47;53.94;96423.83;67941;1275;1016103;-61
2024/01/18 09:28:26;;;;;;;27.10;11.00;;;;;;;11.36;54.66;96432.01;67970;1275;1016483;-61
2024/01/18 09:31:29;;;;;;;;;;;;;;;11.33;54.58;96433.70;67947;1275;1019856;-61
2024/01/18 09:34:32;;;;;;;27.50;11.60;;;;;;;11.39;53.86;96430.45;67934;1275;1016400;-61
2024/01/18 09:37:34;;;;;;;;;;;;;;;11.53;53.48;96434.69;67940;1275;1016430;-62
2024/01/18 09:40:39;;;;;;;29.40;12.10;;;;;;;11.56;53.79;96439.55;67982;1275;1016671;-61
2024/01/18 09:43:41;;;;;;;28.50;11.70;;;;;;;11.70;53.35;96444.25;67936;1275;1016205;-61
2024/01/18 09:46:44;;;;;;;28.60;11.50;;;;;;;11.63;53.70;96451.64;67983;1275;1016422;-61
2024/01/18 09:49:47;;;;;;;28.00;11.30;;;;;;;11.67;53.17;96454.16;67992;1275;1017252;-61
2024/01/18 09:52:50;;;;;;;25.70;9.90;;;;;;;11.59;53.22;96459.60;67927;1275;1016948;-61
2024/01/18 09:55:53;;;;;;;27.60;11.10;;;;;;;11.53;53.27;96465.39;67943;1275;1016268;-62
2024/01/18 09:58:56;;;;;;;27.30;10.60;;;;;;;11.55;53.14;96470.78;67983;1275;1016454;-61
2024/01/18 10:01:58;;;;;;;;;;;;;;;11.63;52.98;96474.56;67963;1275;1016466;-61
2024/01/18 10:05:01;;;;;;;29.80;12.60;;;;;;;11.69;52.67;96482.65;67972;1275;1016442;-61
2024/01/18 10:08:04;;;;;;;;;;;;;;;11.71;52.34;96478.39;67995;1275;1016340;-62
2024/01/18 10:11:07;;;;;;;33.30;14.40;;;;;;;11.48;52.50;96490.27;67971;1275;1017213;-61
2024/01/18 10:14:09;;;;;;;;;;;;;;;11.38;52.71;96496.90;67990;1275;1016345;-61
2024/01/18 10:17:12;;;;;;;34.60;15.00;;;;;;;11.43;52.74;96506.27;67932;1275;1017211;-60
2024/01/18 10:20:15;;;;;;;;;;;;;;;11.29;52.78;96500.54;67979;1275;1016462;-61
2024/01/18 10:23:17;;;;;;;37.90;16.20;;;;;;;11.33;52.71;96494.62;67988;1275;1016350;-61
2024/01/18 10:26:20;;;;;;;;;;;;;;;11.44;52.12;96499.54;67977;1275;1016523;-61
2024/01/18 10:29:23;;;;;;;36.90;15.20;;;;;;;11.36;52.08;96501.06;67984;1275;1017220;-62
2024/01/18 10:32:26;;;;;;;;;;;;;;;11.18;52.47;96506.26;67898;1275;1016281;-61
2024/01/18 10:35:28;;;;;;;33.80;14.70;;;;;;;11.01;52.70;96508.48;67962;1275;1016190;-61
2024/01/18 10:38:32;;;;;;;34.60;15.10;;;;;;;11.05;52.44;96508.73;67971;1275;1015992;-61
2024/01/18 10:41:35;;;;;;;36.10;14.90;;;;;;;11.11;52.34;96504.52;67997;1275;1016236;-62
2024/01/18 10:44:38;;;;;;;;;;;;;;;11.10;52.21;96504.70;67994;1275;1016303;-61
2024/01/18 10:47:40;;;;;;;33.70;14.00;;;;;;;11.13;52.19;96502.07;67946;1275;1016930;-61
2024/01/18 10:50:43;;;;;;;;;;;;;;;11.27;51.92;96499.21;67991;1275;1016878;-61
2024/01/18 10:53:46;;;;;;;32.50;14.00;;;;;;;11.48;51.42;96498.27;67939;1275;1016409;-61
2024/01/18 10:56:48;;;;;;;;;;;;;;;11.58;51.51;96500.27;67946;1275;1016421;-61
2024/01/18 10:59:52;;;;;;;27.80;11.60;;;;;;;11.79;50.78;96507.80;67986;1275;1017771;-61
2024/01/18 11:02:55;;;;;;;27.60;11.40;;;;;;;11.85;50.01;96513.81;68036;1275;1016123;-62
2024/01/18 11:05:58;;;;;;;29.80;11.90;;;;;;;11.97;49.92;96510.34;67934;1275;1016217;-61
2024/01/18 11:09:00;;;;;;;;;;;;;;;12.03;49.84;96512.92;67932;1275;1016426;-62
2024/01/18 11:12:03;;;;;;;28.30;11.80;;;;;;;12.20;49.81;96509.16;67986;1275;1016255;-61
2024/01/18 11:15:06;;;;;;;30.70;12.70;;;;;;;12.23;50.01;96504.50;67932;1275;1016355;-61
2024/01/18 11:18:09;;;;;;;28.20;11.60;;;;;;;12.27;49.36;96505.79;67952;1275;1016950;-61
2024/01/18 11:21:12;;;;;;;29.00;12.40;;;;;;;12.26;49.73;96508.71;67923;1275;1016375;-61
2024/01/18 11:24:15;;;;;;;;;;;;;;;12.33;49.39;96510.61;67954;1273;1016459;-61
2024/01/18 11:27:18;;;;;;;31.50;13.60;;;;;;;12.19;49.30;96510.86;67970;1275;1016435;-61
2024/01/18 11:30:21;;;;;;;33.20;13.60;;;;;;;11.92;49.61;96511.48;67946;1275;1016109;-61
2024/01/18 11:33:23;;;;;;;;;;;;;;;11.65;49.68;96512.90;68008;1275;1019270;-61
2024/01/18 11:36:26;;;;;;;32.60;14.30;;;;;;;11.33;50.46;96519.05;67958;1275;1016287;-61
2024/01/18 11:39:29;;;;;;;33.40;14.60;;;;;;;11.01;51.33;96517.04;67907;1275;1016548;-61
2024/01/18 11:42:32;;;;;;;;;;;;;;;11.02;51.20;96516.36;67985;1275;1016548;-61
2024/01/18 11:45:34;;;;;;;36.90;15.50;;;;;;;11.01;51.24;96522.77;67968;1275;1017826;-61
2024/01/18 11:48:37;;;;;;;;;;;;;;;11.12;51.05;96521.22;67937;1275;1016297;-62
2024/01/18 11:51:40;;;;;;;32.80;14.70;;;;;;;11.04;51.13;96521.39;67982;1275;1016255;-61
2024/01/18 11:54:43;;;;;;;35.50;14.90;;;;;;;10.93;51.38;96524.26;67929;1275;1016198;-61
2024/01/18 11:57:46;;;;;;;;;;;;;;;10.89;51.35;96523.27;67984;1275;1016610;-60
2024/01/18 12:00:49;;;;;;;33.70;15.00;;;;;;;11.00;51.19;96520.45;67968;1275;1016346;-61
2024/01/18 12:03:52;;;;;;;33.40;14.60;;;;;;;11.11;50.99;96520.02;67950;1275;1015911;-61
2024/01/18 12:06:55;;;;;;;35.50;15.60;;;;;;;11.05;50.97;96522.52;67931;1275;1016328;-62
2024/01/18 12:09:58;;;;;;;36.50;15.60;;;;;;;11.03;51.07;96528.10;67973;1275;1016140;-61
2024/01/18 12:13:01;;;;;;;36.70;16.10;;;;;;;10.93;51.01;96537.86;67921;1275;1016302;-61
2024/01/18 12:16:04;;;;;;;;;;;;;;;10.74;51.40;96547.41;67910;1275;1016443;-61
2024/01/18 12:19:08;;;;;;;;;;;;;;;10.51;51.52;96555.25;67987;1275;1016467;-61
2024/01/18 12:22:10;;;;;;;34.90;15.10;;;;;;;10.51;51.15;96556.85;67948;1275;1016331;-61
2024/01/18 12:25:13;;;;;;;36.50;16.30;;;;;;;10.46;50.97;96560.61;67956;1275;1018825;-61
2024/01/18 12:28:16;;;;;;;;;;;;;;;10.44;51.23;96570.80;67988;1275;1016703;-61
2024/01/18 12:31:20;;;;;;;39.90;17.20;;;;;;;10.45;51.04;96570.65;67985;1275;1016260;-61
2024/01/18 12:34:22;;;;;;;39.40;17.90;;;;;;;10.56;50.86;96569.61;67986;1275;1018111;-61
2024/01/18 12:37:25;;;;;;;43.10;19.60;;;;;;;10.59;50.81;96569.70;67917;1275;1016483;-61
2024/01/18 12:40:28;;;;;;;;;;;;;;;10.62;50.81;96573.91;67963;1275;1016004;-61
2024/01/18 12:43:31;;;;;;;40.40;17.90;;;;;;;10.72;50.64;96570.92;67990;1275;1016955;-60
2024/01/18 12:46:34;;;;;;;43.00;18.80;;;;;;;10.83;50.28;96573.14;67919;1275;1016462;-61
2024/01/18 12:49:37;;;;;;;42.70;19.90;;;;;;;10.83;50.22;96563.90;67969;1275;1017294;-61
2024/01/18 12:52:39;;;;;;;;;;;;;;;10.91;50.44;96554.86;67956;1275;1016418;-61
2024/01/18 12:55:42;;;;;;;43.00;18.90;;;;;;;11.27;50.29;96553.10;67907;1275;1016895;-62
2024/01/18 12:58:45;;;;;;;;;;;;;;;11.52;50.02;96545.81;67987;1275;1016447;-61
2024/01/18 13:01:47;;;;;;;42.50;19.00;;;;;;;11.76;49.43;96551.10;67957;1275;1018478;-61
2024/01/18 13:04:51;;;;;;;39.70;18.40;;;;;;;11.86;49.12;96559.75;67981;1275;1016214;-61
2024/01/18 13:07:53;;;;;;;41.40;19.60;;;;;;;11.91;48.87;96561.57;68002;1275;1016421;-61
2024/01/18 13:10:56;;;;;;;;;;;;;;;11.97;48.90;96562.29;67965;1275;1017383;-61
2024/01/18 13:13:59;;;;;;;43.60;20.20;;;;;;;11.94;48.61;96566.33;67958;1275;1015669;-62
2024/01/18 13:17:02;;;;;;;48.00;22.20;;;;;;;11.91;48.31;96572.55;67929;1274;1016144;-62
2024/01/18 13:20:04;;;;;;;;;;;;;;;11.76;48.49;96573.32;67923;1275;1016477;-61
2024/01/18 13:23:09;;;;;;;48.30;22.10;;;;;;;11.71;48.66;96577.25;67967;1275;1016325;-61
2024/01/18 13:26:12;;;;;;;45.80;21.90;;;;;;;11.66;48.86;96580.00;68024;1275;1016461;-62
2024/01/18 13:29:16;;;;;;;48.40;22.80;;;;;;;11.64;48.90;96583.02;67911;1275;1016761;-61
2024/01/18 13:32:19;;;;;;;47.90;22.30;;;;;;;11.63;48.90;96584.14;67942;1275;1016713;-60
2024/01/18 13:35:21;;;;;;;48.40;23.10;;;;;;;11.58;48.80;96577.14;67990;1275;1018701;-61
2024/01/18 13:38:24;;;;;;;;;;;;;;;11.61;48.36;96565.98;67984;1275;1017215;-61
2024/01/18 13:41:27;;;;;;;49.50;22.80;;;;;;;11.63;48.60;96557.82;67953;1275;1016313;-62
2024/01/18 13:44:30;;;;;;;52.00;23.70;;;;;;;11.78;48.41;96577.73;68006;1275;1016297;-60
2024/01/18 13:47:33;;;;;;;49.70;23.40;;;;;;;11.72;48.15;96590.06;67959;1275;1016780;-60
2024/01/18 13:50:48;;;;;;;53.10;25.10;;;;;;;11.57;48.30;96591.23;67950;1275;1015849;-61
2024/01/18 13:53:51;;;;;;;58.00;27.00;;;;;;;11.36;48.87;96595.39;67942;1275;1016284;-61
2024/01/18 13:56:53;;;;;;;;;;;;;;;11.23;48.99;96603.02;67992;1275;1016093;-61
2024/01/18 13:59:57;;;;;;;55.20;24.50;;;;;;;10.97;49.30;96607.58;67930;1275;1016287;-61
2024/01/18 14:02:59;;;;;;;59.20;25.80;;;;;;;10.84;49.48;96611.34;67986;1275;1016094;-61
2024/01/18 14:06:03;;;;;;;56.30;25.30;;;;;;;10.81;49.72;96612.66;67918;1275;1016055;-61
2024/01/18 14:09:07;;;;;;;53.90;25.10;;;;;;;10.75;50.00;96617.28;67992;1275;1016781;-61